모두
Hemmingsen Airport (Erskine, MN) 76MN 기상
There is no TAF data available at 76MN or any nearby airports.
There is no METAR data available at 76MN. Showing METAR data for KFSE (12 mi E).
최근 FSE METAR 이력(76MN에 대한 데이터 없음)
| Date | Time (CDT) | Flight Rules | Wind Dir. | Speed | Type | Height AGL (ft) | Visibility | Temp (°C) | Temp (°F) | Dew Point (°C) | Dew Point (°F) | Rel. Humid. | Pressure | Density Altitude | Remarks |
|---|---|---|---|---|---|---|---|---|---|---|---|---|---|---|---|
| gap in available data | |||||||||||||||
| 01-9월 | 08:07 | VFR | 240° | 3 kt | 10 miles | 14° | 57° | 11° | 51° | 82% | 29.94 in Hg | 1,376 ft | |||
| 01-9월 | 07:55 | VFR | 250° | 4 kt | 10 miles | 13° | 55° | 10° | 50° | 82% | 29.93 in Hg | 1,266 ft | |||
| 01-9월 | 07:36 | VFR | 230° | 5 kt | 10 miles | 13° | 55° | 10° | 50° | 82% | 29.94 in Hg | 1,256 ft | |||
| 01-9월 | 07:16 | VFR | 210° | 7 kt | 10 miles | 12° | 53° | 10° | 50° | 88% | 29.94 in Hg | 1,136 ft | |||
| 01-9월 | 06:57 | VFR | 200° | 8 kt | 10 miles | 11° | 51° | 10° | 50° | 94% | 29.94 in Hg | 1,016 ft | |||
| 01-9월 | 06:16 | VFR | 220° | 5 kt | 10 miles | 12° | 53° | 9° | 48° | 82% | 29.92 in Hg | 1,156 ft | |||
| 01-9월 | 05:54 | VFR | 220° | 6 kt | 10 miles | 12° | 53° | 10° | 50° | 88% | 29.92 in Hg | 1,156 ft | |||
| 01-9월 | 05:14 | VFR | 220° | 5 kt | 10 miles | 12° | 53° | 9° | 48° | 82% | 29.91 in Hg | 1,166 ft | |||
| 01-9월 | 04:54 | VFR | 220° | 5 kt | 10 miles | 12° | 53° | 9° | 48° | 82% | 29.91 in Hg | 1,166 ft | |||
| 01-9월 | 04:15 | VFR | 220° | 4 kt | 10 miles | 12° | 53° | 9° | 48° | 82% | 29.91 in Hg | 1,166 ft | |||
| 01-9월 | 03:55 | VFR | 210° | 5 kt | 10 miles | 12° | 53° | 10° | 50° | 88% | 29.90 in Hg | 1,176 ft | |||
| 01-9월 | 03:15 | VFR | 210° | 5 kt | 10 miles | 12° | 53° | 11° | 51° | 94% | 29.91 in Hg | 1,166 ft | |||
| 01-9월 | 02:55 | VFR | 200° | 6 kt | 10 miles | 12° | 53° | 11° | 51° | 94% | 29.90 in Hg | 1,176 ft | |||
| 01-9월 | 02:29 | VFR | 200° | 6 kt | 10 miles | 13° | 55° | 9° | 48° | 77% | 29.90 in Hg | 1,296 ft | |||
| 01-9월 | 02:18 | VFR | 200° | 6 kt | 10 miles | 13° | 55° | 9° | 48° | 77% | 29.90 in Hg | 1,296 ft | |||
| 01-9월 | 01:59 | VFR | 210° | 5 kt | 10 miles | 13° | 55° | 9° | 48° | 77% | 29.90 in Hg | 1,296 ft | |||
| 01-9월 | 01:20 | VFR | 240° | 4 kt | 10 miles | 15° | 59° | 9° | 48° | 67% | 29.90 in Hg | 1,536 ft | |||
| 01-9월 | 00:55 | VFR | 240° | 5 kt | 10 miles | 16° | 60° | 9° | 48° | 63% | 29.89 in Hg | 1,666 ft | |||
| 01-9월 | 00:16 | VFR | 240° | 5 kt | 10 miles | 17° | 62° | 9° | 48° | 59% | 29.89 in Hg | 1,786 ft | |||
| 01-9월 | 00:02 | VFR | 240° | 6 kt | 10 miles | 17° | 62° | 9° | 48° | 59% | 29.89 in Hg | 1,786 ft | |||
| 31-8월 | 23:45 | VFR | 250° | 7 kt | 10 miles | 18° | 64° | 9° | 48° | 56% | 29.88 in Hg | 1,916 ft | |||
| 31-8월 | 23:35 | VFR | 270° | 11 kt | 10 miles | 17° | 62° | 9° | 48° | 59% | 29.88 in Hg | 1,796 ft | Wind gusting to 14 KT | ||
| 31-8월 | 23:15 | VFR | 210° | 8 kt | 10 miles | 18° | 64° | 9° | 48° | 56% | 29.86 in Hg | 1,936 ft | |||
| 31-8월 | 22:55 | VFR | 220° | 7 kt | 10 miles | 18° | 64° | 9° | 48° | 56% | 29.86 in Hg | 1,936 ft | |||
로그인
| 귀하의 브라우저는 지원되지 않습니다.. 브라우저를 업그레이드하세요 |
